createdAt,value
2019-05-19T00:01:47.226Z,12.15
2019-05-19T00:04:17.011Z,12.07
2019-05-19T00:06:46.842Z,12.00
2019-05-19T00:09:16.838Z,11.97
2019-05-19T00:11:46.822Z,12.00
2019-05-19T00:14:16.534Z,12.03
2019-05-19T00:16:46.358Z,12.02
2019-05-19T00:19:26.284Z,12.03
2019-05-19T00:21:47.812Z,12.01
2019-05-19T00:24:17.541Z,11.99
2019-05-19T00:26:47.402Z,11.96
2019-05-19T00:29:17.253Z,11.83
2019-05-19T00:31:47.034Z,11.65
2019-05-19T00:34:16.912Z,11.47
2019-05-19T00:36:46.662Z,11.35
2019-05-19T00:39:16.532Z,11.34
2019-05-19T00:41:46.377Z,11.29
2019-05-19T00:44:16.343Z,11.28
2019-05-19T00:46:46.193Z,11.29
2019-05-19T00:49:16.101Z,11.32
2019-05-19T00:51:45.980Z,11.29
2019-05-19T00:54:15.820Z,11.26
2019-05-19T00:56:45.799Z,11.19
2019-05-19T00:59:16.157Z,11.14
2019-05-19T01:01:45.948Z,11.03
2019-05-19T01:04:15.823Z,10.90
2019-05-19T01:06:45.797Z,10.78
2019-05-19T01:09:15.904Z,10.70
2019-05-19T01:11:45.800Z,10.66
2019-05-19T01:14:15.896Z,10.70
2019-05-19T01:16:45.717Z,10.76
2019-05-19T01:19:15.496Z,10.85
2019-05-19T01:21:45.980Z,10.83
2019-05-19T01:24:15.791Z,10.85
2019-05-19T01:26:45.628Z,10.88
2019-05-19T01:29:15.381Z,10.92
2019-05-19T01:31:45.293Z,10.93
2019-05-19T01:34:15.094Z,10.88
2019-05-19T01:36:45.210Z,10.88
2019-05-19T01:39:16.146Z,10.88
2019-05-19T01:41:46.008Z,10.79
2019-05-19T01:44:15.803Z,10.71
2019-05-19T01:46:45.526Z,10.64
2019-05-19T01:49:15.289Z,10.65
2019-05-19T01:51:45.040Z,10.68
2019-05-19T01:54:16.708Z,10.72
2019-05-19T01:56:46.678Z,10.73
2019-05-19T01:59:16.520Z,10.69
2019-05-19T02:01:46.267Z,10.61
2019-05-19T02:04:16.092Z,10.50
2019-05-19T02:06:45.902Z,10.42
2019-05-19T02:09:15.659Z,10.40
2019-05-19T02:11:45.720Z,10.42
2019-05-19T02:14:15.542Z,10.41
2019-05-19T02:16:45.283Z,10.43
2019-05-19T02:19:15.253Z,10.45
2019-05-19T02:21:44.999Z,10.48
2019-05-19T02:24:14.780Z,10.51
2019-05-19T02:26:44.822Z,10.53
2019-05-19T02:29:14.655Z,10.56
2019-05-19T02:31:44.430Z,10.59
2019-05-19T02:34:14.254Z,10.60
2019-05-19T02:36:44.088Z,10.56
2019-05-19T02:39:13.954Z,10.43
2019-05-19T02:41:46.841Z,10.29
2019-05-19T02:44:20.268Z,10.19
2019-05-19T02:46:51.496Z,10.09
2019-05-19T02:49:23.248Z,10.10
2019-05-19T02:51:53.991Z,10.11
2019-05-19T02:54:24.955Z,10.16
2019-05-19T02:56:56.311Z,10.26
2019-05-19T02:59:26.849Z,10.36
2019-05-19T03:02:21.215Z,10.41
2019-05-19T03:04:50.980Z,10.44
2019-05-19T03:07:20.799Z,10.37
2019-05-19T03:09:50.716Z,10.23
2019-05-19T03:12:20.577Z,10.18
2019-05-19T03:14:51.390Z,10.19
2019-05-19T03:17:21.136Z,10.20
2019-05-19T03:19:50.956Z,10.18
2019-05-19T03:22:20.721Z,10.19
2019-05-19T03:24:50.489Z,10.17
2019-05-19T03:27:20.346Z,10.20
2019-05-19T03:29:54.728Z,10.28
2019-05-19T03:32:37.960Z,10.32
2019-05-19T03:35:08.460Z,10.30
2019-05-19T03:37:38.184Z,10.20
2019-05-19T03:40:20.137Z,10.11
2019-05-19T03:42:51.258Z,10.10
2019-05-19T03:45:21.217Z,10.06
2019-05-19T03:47:51.107Z,10.03
2019-05-19T03:50:20.904Z,9.98
2019-05-19T03:52:50.687Z,9.96
2019-05-19T03:55:20.511Z,10.03
2019-05-19T03:57:50.376Z,10.21
2019-05-19T04:00:20.698Z,10.39
2019-05-19T04:02:50.518Z,10.57
2019-05-19T04:05:20.418Z,10.79
2019-05-19T04:07:51.057Z,11.25
2019-05-19T04:10:21.118Z,11.81
2019-05-19T04:12:50.901Z,12.24
2019-05-19T04:15:20.844Z,12.42
2019-05-19T04:17:50.559Z,12.65
2019-05-19T04:20:21.457Z,13.08
2019-05-19T04:22:51.259Z,13.54
2019-05-19T04:25:21.174Z,13.58
2019-05-19T04:27:51.088Z,13.64
2019-05-19T04:30:21.047Z,13.82
2019-05-19T04:32:50.860Z,13.80
2019-05-19T04:35:20.820Z,13.74
2019-05-19T04:37:50.534Z,13.76
2019-05-19T04:40:20.306Z,13.74
2019-05-19T04:42:50.031Z,13.66
2019-05-19T04:45:20.819Z,13.73
2019-05-19T04:47:50.537Z,14.14
2019-05-19T04:50:20.346Z,14.77
2019-05-19T04:52:50.308Z,15.35
2019-05-19T04:55:20.184Z,15.76
2019-05-19T04:57:49.956Z,15.91
2019-05-19T05:00:19.871Z,15.97
2019-05-19T05:02:49.597Z,16.04
2019-05-19T05:05:19.603Z,15.96
2019-05-19T05:07:49.419Z,15.81
2019-05-19T05:10:19.332Z,15.69
2019-05-19T05:12:49.093Z,15.86
2019-05-19T05:15:19.104Z,16.26
2019-05-19T05:17:48.886Z,16.95
2019-05-19T05:20:19.008Z,17.85
2019-05-19T05:22:48.872Z,18.88
2019-05-19T05:25:18.868Z,19.86
2019-05-19T05:27:48.686Z,20.51
2019-05-19T05:30:19.020Z,20.77
2019-05-19T05:32:48.979Z,20.76
2019-05-19T05:35:18.879Z,20.30
2019-05-19T05:37:48.713Z,20.06
2019-05-19T05:40:18.692Z,19.94
2019-05-19T05:42:48.506Z,20.00
2019-05-19T05:45:18.483Z,20.34
2019-05-19T05:47:48.270Z,20.99
2019-05-19T05:50:18.518Z,21.60
2019-05-19T05:52:48.363Z,22.17
2019-05-19T05:55:18.221Z,22.61
2019-05-19T05:57:48.011Z,23.14
2019-05-19T06:00:18.277Z,23.43
2019-05-19T06:02:48.068Z,23.72
2019-05-19T06:05:17.953Z,24.18
2019-05-19T06:07:47.749Z,24.41
2019-05-19T06:10:17.734Z,24.36
2019-05-19T06:12:47.460Z,24.60
2019-05-19T06:15:17.297Z,24.59
2019-05-19T06:17:47.109Z,24.99
2019-05-19T06:20:16.931Z,25.10
2019-05-19T06:22:55.893Z,24.47
2019-05-19T06:25:18.348Z,23.90
2019-05-19T06:27:48.244Z,23.30
2019-05-19T06:30:18.786Z,23.06
2019-05-19T06:32:52.669Z,22.75
2019-05-19T06:35:23.704Z,22.55
2019-05-19T06:37:53.535Z,22.34
2019-05-19T06:40:23.420Z,22.59
2019-05-19T06:42:53.178Z,22.79
2019-05-19T06:45:23.111Z,23.16
2019-05-19T06:47:52.901Z,23.94
2019-05-19T06:50:22.802Z,25.03
2019-05-19T06:52:52.632Z,25.78
2019-05-19T06:55:22.605Z,26.42
2019-05-19T06:57:52.457Z,26.76
2019-05-19T07:00:22.753Z,27.24
2019-05-19T07:02:52.593Z,27.58
2019-05-19T07:05:22.598Z,27.67
2019-05-19T07:07:52.523Z,27.71
2019-05-19T07:10:22.252Z,27.88
2019-05-19T07:12:51.965Z,27.85
2019-05-19T07:15:21.942Z,27.78
2019-05-19T07:17:51.850Z,28.24
2019-05-19T07:20:21.809Z,28.62
2019-05-19T07:22:51.753Z,28.86
2019-05-19T07:25:21.577Z,28.56
2019-05-19T07:27:51.475Z,28.62
2019-05-19T07:30:21.381Z,28.76
2019-05-19T07:32:51.346Z,28.89
2019-05-19T07:35:21.130Z,29.49
2019-05-19T07:37:50.977Z,30.25
2019-05-19T07:40:20.789Z,30.81
2019-05-19T07:42:50.636Z,30.93
2019-05-19T07:45:21.492Z,30.60
2019-05-19T07:47:51.305Z,30.40
2019-05-19T07:50:21.167Z,30.43
2019-05-19T07:52:50.943Z,30.60
2019-05-19T07:55:21.823Z,30.46
2019-05-19T07:57:52.743Z,30.21
2019-05-19T08:00:22.646Z,30.03
2019-05-19T08:02:52.390Z,29.83
2019-05-19T08:05:22.271Z,29.91
2019-05-19T08:07:52.187Z,29.97
2019-05-19T08:10:22.157Z,30.13
2019-05-19T08:12:52.078Z,30.22
2019-05-19T08:15:21.954Z,30.28
2019-05-19T08:17:51.709Z,30.26
2019-05-19T08:20:21.829Z,30.57
2019-05-19T08:22:51.638Z,30.61
2019-05-19T08:25:21.591Z,30.53
2019-05-19T08:27:51.389Z,30.59
2019-05-19T08:30:21.255Z,30.87
2019-05-19T08:32:50.387Z,30.99
2019-05-19T08:35:19.556Z,31.47
2019-05-19T08:37:48.449Z,32.13
2019-05-19T08:40:17.370Z,32.38
2019-05-19T08:42:46.253Z,32.46
2019-05-19T08:45:15.412Z,32.40
2019-05-19T08:47:44.313Z,32.67
2019-05-19T08:50:14.505Z,32.88
2019-05-19T08:52:44.362Z,33.08
2019-05-19T08:55:14.254Z,33.02
2019-05-19T08:57:44.044Z,33.43
2019-05-19T09:00:14.110Z,33.93
2019-05-19T09:02:44.229Z,34.20
2019-05-19T09:05:14.436Z,33.80
2019-05-19T09:07:44.450Z,33.20
2019-05-19T09:10:15.500Z,33.15
2019-05-19T09:12:45.365Z,33.25
2019-05-19T09:15:15.918Z,33.10
2019-05-19T09:17:45.866Z,33.22
2019-05-19T09:20:15.887Z,32.52
2019-05-19T09:22:45.955Z,32.51
2019-05-19T09:25:15.819Z,33.23
2019-05-19T09:27:45.624Z,33.16
2019-05-19T09:30:15.983Z,33.00
2019-05-19T09:32:45.761Z,33.01
2019-05-19T09:35:15.781Z,32.74
2019-05-19T09:37:45.750Z,32.90
2019-05-19T09:40:15.801Z,32.65
2019-05-19T09:42:45.655Z,31.69
2019-05-19T09:45:15.556Z,32.09
2019-05-19T09:47:45.468Z,32.31
2019-05-19T09:50:15.498Z,33.14
2019-05-19T09:52:45.315Z,33.22
2019-05-19T09:55:15.530Z,32.98
2019-05-19T09:57:45.403Z,31.70
2019-05-19T10:00:15.650Z,31.10
2019-05-19T10:02:45.461Z,31.62
2019-05-19T10:05:15.574Z,32.64
2019-05-19T10:07:45.351Z,32.84
2019-05-19T10:10:17.689Z,32.30
2019-05-19T10:12:47.579Z,32.72
2019-05-19T10:15:17.499Z,32.96
2019-05-19T10:17:47.372Z,31.34
2019-05-19T10:20:18.659Z,30.54
2019-05-19T10:22:49.752Z,29.81
2019-05-19T10:25:22.298Z,29.62
2019-05-19T10:27:51.512Z,30.62
2019-05-19T10:30:21.496Z,30.97
2019-05-19T10:32:51.378Z,29.70
2019-05-19T10:35:21.247Z,28.59
2019-05-19T10:37:51.162Z,29.00
2019-05-19T10:40:21.204Z,30.27
2019-05-19T10:42:51.161Z,30.78
2019-05-19T10:45:22.075Z,30.32
2019-05-19T10:47:51.949Z,30.74
2019-05-19T10:50:22.911Z,31.57
2019-05-19T10:52:52.653Z,30.69
2019-05-19T10:55:35.509Z,29.99
2019-05-19T10:57:53.959Z,29.80
2019-05-19T11:00:23.869Z,28.63
2019-05-19T11:02:53.666Z,28.35
2019-05-19T11:05:23.557Z,27.80
2019-05-19T11:07:53.414Z,27.17
2019-05-19T11:10:23.276Z,26.62
2019-05-19T11:12:53.062Z,26.93
2019-05-19T11:15:23.067Z,28.19
2019-05-19T11:18:01.005Z,29.51
2019-05-19T11:20:31.043Z,29.32
2019-05-19T11:23:01.010Z,29.79
2019-05-19T11:25:34.000Z,30.55
2019-05-19T11:28:02.590Z,31.76
2019-05-19T11:30:32.437Z,32.13
2019-05-19T11:33:02.342Z,31.91
2019-05-19T11:35:32.266Z,30.72
2019-05-19T11:38:02.049Z,30.83
2019-05-19T11:40:32.021Z,31.34
2019-05-19T11:43:01.915Z,30.96
2019-05-19T11:45:31.866Z,29.81
2019-05-19T11:48:01.716Z,30.04
2019-05-19T11:50:32.898Z,30.93
2019-05-19T11:53:02.891Z,31.23
2019-05-19T11:55:33.906Z,31.11
2019-05-19T11:58:03.809Z,30.92
2019-05-19T12:00:33.804Z,31.44
2019-05-19T12:03:03.621Z,31.09
2019-05-19T12:05:33.590Z,31.22
2019-05-19T12:08:03.413Z,31.90
2019-05-19T12:10:33.246Z,31.11
2019-05-19T12:13:03.012Z,30.79
2019-05-19T12:15:33.028Z,30.99
2019-05-19T12:18:02.773Z,30.48
2019-05-19T12:20:32.650Z,29.58
2019-05-19T12:23:02.448Z,29.94
2019-05-19T12:25:32.355Z,30.38
2019-05-19T12:28:02.265Z,30.27
2019-05-19T12:30:32.454Z,29.35
2019-05-19T12:33:02.556Z,29.23
2019-05-19T12:35:32.559Z,29.20
2019-05-19T12:38:02.392Z,29.54
2019-05-19T12:40:32.458Z,30.13
2019-05-19T12:43:02.506Z,30.43
2019-05-19T12:45:32.538Z,30.24
2019-05-19T12:48:02.543Z,29.53
2019-05-19T12:50:32.460Z,28.84
2019-05-19T12:53:02.525Z,28.30
2019-05-19T12:55:32.557Z,27.88
2019-05-19T12:58:02.473Z,27.50
2019-05-19T13:00:32.385Z,27.21
2019-05-19T13:03:02.250Z,27.13
2019-05-19T13:05:32.085Z,27.06
2019-05-19T13:08:01.953Z,27.07
2019-05-19T13:10:31.695Z,27.26
2019-05-19T13:13:01.565Z,27.50
2019-05-19T13:15:31.580Z,27.78
2019-05-19T13:18:01.438Z,27.77
2019-05-19T13:20:31.206Z,27.71
2019-05-19T13:23:01.087Z,27.23
2019-05-19T13:25:30.933Z,26.88
2019-05-19T13:28:01.742Z,26.71
2019-05-19T13:30:32.657Z,26.73
2019-05-19T13:33:02.561Z,26.83
2019-05-19T13:35:32.430Z,26.80
2019-05-19T13:38:02.175Z,26.76
2019-05-19T13:40:32.029Z,26.51
2019-05-19T13:43:01.842Z,26.32
2019-05-19T13:45:31.797Z,26.11
2019-05-19T13:48:01.759Z,26.22
2019-05-19T13:50:31.542Z,26.58
2019-05-19T13:53:01.314Z,26.71
2019-05-19T13:55:31.080Z,26.70
2019-05-19T13:58:03.449Z,26.71
2019-05-19T14:00:32.363Z,26.77
2019-05-19T14:03:02.245Z,26.87
2019-05-19T14:05:32.104Z,26.94
2019-05-19T14:08:01.946Z,26.89
2019-05-19T14:10:31.736Z,26.78
2019-05-19T14:13:01.904Z,26.56
2019-05-19T14:15:31.847Z,26.35
2019-05-19T14:18:01.592Z,26.24
2019-05-19T14:20:31.306Z,26.49
2019-05-19T14:23:01.044Z,27.04
2019-05-19T14:25:30.879Z,27.44
2019-05-19T14:28:00.671Z,27.70
2019-05-19T14:30:30.560Z,27.56
2019-05-19T14:33:00.435Z,27.17
2019-05-19T14:35:30.271Z,26.77
2019-05-19T14:38:00.058Z,26.41
2019-05-19T14:40:29.890Z,26.10
2019-05-19T14:43:01.965Z,25.86
2019-05-19T14:45:32.167Z,25.74
2019-05-19T14:48:02.042Z,25.69
2019-05-19T14:50:31.903Z,25.62
2019-05-19T14:53:01.593Z,25.56
2019-05-19T14:55:31.357Z,25.59
2019-05-19T14:58:01.129Z,25.72
2019-05-19T15:00:30.912Z,25.80
2019-05-19T15:03:00.708Z,25.96
2019-05-19T15:05:30.505Z,26.25
2019-05-19T15:08:00.334Z,26.53
2019-05-19T15:10:30.267Z,26.70
2019-05-19T15:13:00.127Z,26.68
2019-05-19T15:15:29.948Z,26.56
2019-05-19T15:17:59.757Z,26.33
2019-05-19T15:20:29.563Z,26.11
2019-05-19T15:22:59.430Z,25.79
2019-05-19T15:25:29.198Z,25.56
2019-05-19T15:28:00.841Z,25.48
2019-05-19T15:30:30.554Z,25.52
2019-05-19T15:33:00.492Z,25.64
2019-05-19T15:35:30.430Z,25.78
2019-05-19T15:38:00.280Z,25.88
2019-05-19T15:40:30.100Z,25.86
2019-05-19T15:42:59.947Z,25.80
2019-05-19T15:45:29.854Z,25.81
2019-05-19T15:47:59.861Z,25.87
2019-05-19T15:50:29.747Z,25.97
2019-05-19T15:52:59.672Z,26.11
2019-05-19T15:55:30.646Z,26.26
2019-05-19T15:58:15.487Z,26.39
2019-05-19T16:00:32.017Z,26.48
2019-05-19T16:03:01.874Z,26.57
2019-05-19T16:05:31.708Z,26.72
2019-05-19T16:08:01.516Z,26.81
2019-05-19T16:10:31.368Z,26.90
2019-05-19T16:13:01.119Z,26.82
2019-05-19T16:15:30.822Z,26.56
2019-05-19T16:18:00.642Z,26.27
2019-05-19T16:20:30.471Z,26.07
2019-05-19T16:23:00.239Z,25.90
2019-05-19T16:25:30.024Z,25.84
2019-05-19T16:27:59.863Z,25.81
2019-05-19T16:30:29.770Z,25.74
2019-05-19T16:32:59.608Z,25.72
2019-05-19T16:35:30.508Z,25.78
2019-05-19T16:38:00.466Z,25.85
2019-05-19T16:40:30.375Z,25.87
2019-05-19T16:43:02.478Z,25.77
2019-05-19T16:45:31.661Z,25.61
2019-05-19T16:48:01.413Z,25.51
2019-05-19T16:50:31.128Z,25.41
2019-05-19T16:53:00.938Z,25.34
2019-05-19T16:55:33.429Z,25.24
2019-05-19T16:58:03.245Z,25.13
2019-05-19T17:00:33.084Z,24.99
2019-05-19T17:03:02.969Z,24.62
2019-05-19T17:05:33.061Z,24.23
2019-05-19T17:08:02.949Z,23.94
2019-05-19T17:10:32.789Z,23.65
2019-05-19T17:13:02.570Z,23.40
2019-05-19T17:15:32.511Z,23.19
2019-05-19T17:18:02.413Z,23.03
2019-05-19T17:20:32.534Z,22.95
2019-05-19T17:23:02.345Z,22.85
2019-05-19T17:25:32.226Z,22.69
2019-05-19T17:28:02.038Z,22.60
2019-05-19T17:30:32.829Z,22.52
2019-05-19T17:33:02.573Z,22.39
2019-05-19T17:35:32.459Z,22.32
2019-05-19T17:38:02.275Z,22.25
2019-05-19T17:40:32.130Z,22.20
2019-05-19T17:43:01.960Z,22.16
2019-05-19T17:45:31.813Z,22.04
2019-05-19T17:48:09.620Z,21.89
2019-05-19T17:50:34.695Z,21.75
2019-05-19T17:53:05.081Z,21.66
2019-05-19T17:55:35.593Z,21.57
2019-05-19T17:58:05.991Z,21.49
2019-05-19T18:00:39.043Z,21.45
2019-05-19T18:03:09.006Z,21.38
2019-05-19T18:05:38.974Z,21.34
2019-05-19T18:08:08.862Z,21.28
2019-05-19T18:10:39.090Z,21.24
2019-05-19T18:13:09.186Z,21.25
2019-05-19T18:15:39.241Z,21.22
2019-05-19T18:18:08.938Z,21.19
2019-05-19T18:20:38.648Z,21.15
2019-05-19T18:23:08.521Z,21.12
2019-05-19T18:25:38.401Z,21.07
2019-05-19T18:28:08.196Z,21.03
2019-05-19T18:30:38.094Z,20.96
2019-05-19T18:33:08.002Z,20.93
2019-05-19T18:35:37.938Z,20.87
2019-05-19T18:38:07.926Z,20.82
2019-05-19T18:40:37.854Z,20.72
2019-05-19T18:43:07.780Z,20.66
2019-05-19T18:45:37.865Z,20.65
2019-05-19T18:48:07.854Z,20.61
2019-05-19T18:50:37.786Z,20.54
2019-05-19T18:53:10.329Z,20.54
2019-05-19T18:55:40.318Z,20.41
2019-05-19T18:58:10.859Z,20.37
2019-05-19T19:00:41.101Z,20.37
2019-05-19T19:03:12.339Z,20.36
2019-05-19T19:05:43.435Z,20.31
2019-05-19T19:08:13.276Z,20.11
2019-05-19T19:10:43.127Z,20.13
2019-05-19T19:13:13.330Z,20.13
2019-05-19T19:15:43.207Z,20.13
2019-05-19T19:18:13.049Z,20.07
2019-05-19T19:20:42.942Z,20.03
2019-05-19T19:23:12.922Z,19.98
2019-05-19T19:25:42.805Z,19.94
2019-05-19T19:28:13.003Z,19.87
2019-05-19T19:30:43.585Z,19.82
2019-05-19T19:33:13.571Z,19.76
2019-05-19T19:35:43.803Z,19.74
2019-05-19T19:38:13.820Z,19.70
2019-05-19T19:40:43.776Z,19.71
2019-05-19T19:43:13.625Z,19.70
2019-05-19T19:45:43.763Z,19.71
2019-05-19T19:48:14.687Z,19.71
2019-05-19T19:50:44.506Z,19.70
2019-05-19T19:53:14.326Z,19.68
2019-05-19T19:55:44.117Z,19.68
2019-05-19T19:58:14.892Z,19.70
2019-05-19T20:00:45.586Z,19.71
2019-05-19T20:03:15.588Z,19.69
2019-05-19T20:05:45.789Z,19.70
2019-05-19T20:08:15.555Z,19.67
2019-05-19T20:10:45.299Z,19.64
2019-05-19T20:13:15.026Z,19.63
2019-05-19T20:15:44.942Z,19.63
2019-05-19T20:18:14.929Z,19.60
2019-05-19T20:20:44.868Z,19.57
2019-05-19T20:23:14.740Z,19.54
2019-05-19T20:25:44.767Z,19.49
2019-05-19T20:28:14.529Z,19.46
2019-05-19T20:30:44.370Z,19.41
2019-05-19T20:33:14.128Z,19.34
2019-05-19T20:35:44.109Z,19.30
2019-05-19T20:38:14.025Z,19.28
2019-05-19T20:40:44.227Z,19.26
2019-05-19T20:43:14.002Z,19.22
2019-05-19T20:45:43.757Z,19.20
2019-05-19T20:48:13.769Z,19.17
2019-05-19T20:50:43.556Z,19.14
2019-05-19T20:53:14.200Z,19.13
2019-05-19T20:55:44.370Z,19.10
2019-05-19T20:58:14.156Z,19.07
2019-05-19T21:00:50.729Z,19.06
2019-05-19T21:03:15.473Z,19.03
2019-05-19T21:05:45.370Z,18.98
2019-05-19T21:08:15.123Z,18.92
2019-05-19T21:10:44.946Z,18.89
2019-05-19T21:13:14.813Z,18.81
2019-05-19T21:15:44.685Z,18.75
2019-05-19T21:18:14.447Z,18.72
2019-05-19T21:20:44.464Z,18.70
2019-05-19T21:23:15.251Z,18.68
2019-05-19T21:25:45.045Z,18.65
2019-05-19T21:28:14.816Z,18.59
2019-05-19T21:30:44.649Z,18.52
2019-05-19T21:33:14.446Z,18.47
2019-05-19T21:35:44.831Z,18.36
2019-05-19T21:38:14.768Z,18.18
2019-05-19T21:40:44.606Z,17.96
2019-05-19T21:43:14.388Z,17.94
2019-05-19T21:45:44.190Z,18.00
2019-05-19T21:48:14.041Z,18.08
2019-05-19T21:50:43.841Z,18.15
2019-05-19T21:53:13.642Z,18.19
2019-05-19T21:55:43.449Z,18.22
2019-05-19T21:58:13.257Z,18.22
2019-05-19T22:00:43.254Z,18.26
2019-05-19T22:03:13.236Z,18.26
2019-05-19T22:05:52.836Z,18.24
2019-05-19T22:08:16.391Z,18.21
2019-05-19T22:10:46.403Z,18.08
2019-05-19T22:13:16.298Z,17.92
2019-05-19T22:15:46.180Z,17.86
2019-05-19T22:18:16.187Z,17.85
2019-05-19T22:20:46.036Z,17.80
2019-05-19T22:23:15.933Z,17.79
2019-05-19T22:25:45.804Z,17.73
2019-05-19T22:28:15.615Z,17.71
2019-05-19T22:30:45.328Z,17.67
2019-05-19T22:33:17.084Z,17.64
2019-05-19T22:35:46.786Z,17.60
2019-05-19T22:38:16.680Z,17.55
2019-05-19T22:40:46.544Z,17.54
2019-05-19T22:43:16.349Z,17.50
2019-05-19T22:45:46.180Z,17.46
2019-05-19T22:48:16.016Z,17.43
2019-05-19T22:50:45.808Z,17.39
2019-05-19T22:53:15.645Z,17.34
2019-05-19T22:55:45.353Z,17.31
2019-05-19T22:58:15.163Z,17.25
2019-05-19T23:00:44.981Z,17.23
2019-05-19T23:03:14.848Z,17.20
2019-05-19T23:05:44.714Z,17.16
2019-05-19T23:08:15.655Z,17.11
2019-05-19T23:10:45.488Z,17.07
2019-05-19T23:13:15.342Z,17.03
2019-05-19T23:15:45.119Z,16.98
2019-05-19T23:18:14.921Z,16.92
2019-05-19T23:20:44.799Z,16.87
2019-05-19T23:23:14.619Z,16.83
2019-05-19T23:25:44.478Z,16.80
2019-05-19T23:28:14.441Z,16.78
2019-05-19T23:30:44.429Z,16.74
2019-05-19T23:33:14.270Z,16.68
2019-05-19T23:35:44.161Z,16.63
2019-05-19T23:38:13.910Z,16.61
2019-05-19T23:40:43.698Z,16.59
2019-05-19T23:43:13.458Z,16.56
2019-05-19T23:45:43.185Z,16.52
2019-05-19T23:48:13.084Z,16.47
2019-05-19T23:50:42.890Z,16.40
2019-05-19T23:53:12.651Z,16.37
2019-05-19T23:55:42.440Z,16.29
2019-05-19T23:58:12.318Z,16.22
